createdAt,value
2019-02-20T00:00:10.764Z,83.07
2019-02-20T00:01:10.762Z,83.07
2019-02-20T00:02:10.736Z,82.97
2019-02-20T00:03:10.724Z,83.42
2019-02-20T00:04:10.750Z,83.42
2019-02-20T00:05:10.701Z,83.32
2019-02-20T00:06:10.709Z,83.63
2019-02-20T00:07:10.677Z,83.73
2019-02-20T00:08:10.709Z,84.05
2019-02-20T00:09:10.702Z,83.73
2019-02-20T00:10:10.713Z,83.73
2019-02-20T00:11:10.681Z,83.84
2019-02-20T00:12:10.630Z,83.94
2019-02-20T00:13:10.611Z,84.05
2019-02-20T00:14:10.615Z,83.94
2019-02-20T00:15:10.627Z,84.05
2019-02-20T00:16:10.596Z,83.94
2019-02-20T00:17:10.591Z,84.05
2019-02-20T00:18:10.583Z,84.05
2019-02-20T00:19:10.588Z,83.84
2019-02-20T00:20:10.542Z,84.36
2019-02-20T00:21:10.561Z,84.19
2019-02-20T00:22:10.550Z,83.94
2019-02-20T00:23:10.514Z,84.05
2019-02-20T00:24:10.506Z,84.46
2019-02-20T00:25:10.510Z,83.84
2019-02-20T00:26:10.479Z,84.36
2019-02-20T00:27:10.461Z,84.91
2019-02-20T00:29:11.578Z,84.77
2019-02-20T00:30:10.489Z,84.91
2019-02-20T00:31:10.426Z,84.91
2019-02-20T00:32:10.421Z,85.12
2019-02-20T00:33:10.400Z,85.22
2019-02-20T00:34:10.394Z,85.74
2019-02-20T00:35:10.411Z,85.53
2019-02-20T00:36:10.435Z,85.22
2019-02-20T00:37:10.358Z,85.33
2019-02-20T00:38:10.384Z,85.33
2019-02-20T00:39:10.345Z,85.33
2019-02-20T00:40:10.386Z,85.74
2019-02-20T00:41:10.345Z,85.33
2019-02-20T00:42:10.309Z,85.16
2019-02-20T00:43:10.291Z,85.36
2019-02-20T00:44:10.294Z,85.36
2019-02-20T00:45:10.323Z,85.47
2019-02-20T00:46:10.268Z,85.26
2019-02-20T00:47:10.256Z,85.72
2019-02-20T00:48:10.244Z,86.24
2019-02-20T00:49:10.244Z,86.34
2019-02-20T00:50:10.230Z,86.34
2019-02-20T00:51:10.235Z,86.34
2019-02-20T00:52:10.209Z,86.90
2019-02-20T00:53:10.196Z,86.65
2019-02-20T00:54:10.186Z,86.65
2019-02-20T00:55:10.167Z,87.07
2019-02-20T00:56:10.185Z,87.84
2019-02-20T00:57:10.152Z,87.32
2019-02-20T00:58:10.151Z,87.32
2019-02-20T00:59:10.139Z,87.42
2019-02-20T01:00:10.120Z,87.94
2019-02-20T01:01:10.128Z,87.73
2019-02-20T01:02:10.131Z,88.04
2019-02-20T01:03:10.108Z,87.84
2019-02-20T01:04:10.080Z,87.63
2019-02-20T01:05:10.059Z,88.50
2019-02-20T01:06:10.083Z,88.15
2019-02-20T01:07:10.037Z,88.46
2019-02-20T01:08:10.032Z,88.92
2019-02-20T01:09:10.040Z,88.46
2019-02-20T01:10:10.025Z,88.67
2019-02-20T01:11:10.022Z,88.98
2019-02-20T01:12:09.989Z,88.77
2019-02-20T01:13:09.974Z,88.25
2019-02-20T01:14:09.973Z,88.00
2019-02-20T01:15:09.964Z,88.42
2019-02-20T01:16:09.979Z,88.35
2019-02-20T01:17:09.974Z,88.73
2019-02-20T01:18:09.957Z,88.84
2019-02-20T01:19:09.910Z,88.42
2019-02-20T01:20:09.904Z,88.98
2019-02-20T01:21:09.921Z,89.04
2019-02-20T01:22:09.882Z,89.04
2019-02-20T01:23:09.870Z,89.87
2019-02-20T01:24:09.866Z,89.67
2019-02-20T01:25:09.846Z,89.36
2019-02-20T01:26:09.842Z,89.56
2019-02-20T01:27:09.855Z,89.56
2019-02-20T01:28:09.823Z,89.62
2019-02-20T01:29:09.808Z,89.52
2019-02-20T01:30:09.840Z,89.52
2019-02-20T01:31:09.780Z,89.31
2019-02-20T01:32:09.807Z,89.52
2019-02-20T01:33:09.770Z,89.52
2019-02-20T01:34:09.762Z,89.94
2019-02-20T01:35:09.741Z,88.85
2019-02-20T01:36:09.733Z,88.96
2019-02-20T01:37:09.750Z,88.34
2019-02-20T01:38:09.717Z,88.23
2019-02-20T01:39:09.727Z,87.57
2019-02-20T01:40:09.699Z,88.54
2019-02-20T01:41:09.676Z,88.23
2019-02-20T01:42:09.715Z,88.34
2019-02-20T01:43:09.657Z,87.71
2019-02-20T01:44:09.652Z,87.78
2019-02-20T01:45:09.637Z,87.92
2019-02-20T01:46:09.644Z,87.78
2019-02-20T01:47:09.617Z,87.68
2019-02-20T01:48:09.663Z,87.71
2019-02-20T01:49:09.589Z,87.71
2019-02-20T01:50:09.604Z,87.78
2019-02-20T01:51:09.600Z,87.78
2019-02-20T01:52:09.575Z,87.57
2019-02-20T01:53:10.635Z,87.57
2019-02-20T01:54:09.558Z,87.57
2019-02-20T01:55:09.526Z,87.43
2019-02-20T01:56:09.529Z,87.57
2019-02-20T01:57:09.506Z,87.78
2019-02-20T01:58:09.542Z,87.78
2019-02-20T01:59:09.502Z,87.78
2019-02-20T02:00:09.483Z,87.88
2019-02-20T02:01:09.465Z,87.53
2019-02-20T02:02:09.474Z,87.74
2019-02-20T02:03:09.474Z,87.74
2019-02-20T02:04:09.436Z,87.74
2019-02-20T02:05:15.152Z,87.22
2019-02-20T02:06:10.429Z,87.01
2019-02-20T02:07:09.402Z,87.22
2019-02-20T02:08:09.434Z,87.12
2019-02-20T02:09:09.389Z,87.12
2019-02-20T02:10:09.372Z,87.12
2019-02-20T02:11:09.358Z,87.12
2019-02-20T02:12:09.359Z,87.12
2019-02-20T02:13:09.372Z,87.22
2019-02-20T02:14:09.342Z,87.12
2019-02-20T02:15:09.319Z,87.12
2019-02-20T02:16:09.313Z,87.07
2019-02-20T02:17:09.333Z,87.12
2019-02-20T02:18:09.320Z,87.12
2019-02-20T02:19:09.305Z,87.01
2019-02-20T02:20:09.273Z,87.12
2019-02-20T02:21:09.282Z,86.97
2019-02-20T02:22:09.258Z,87.07
2019-02-20T02:23:09.237Z,87.07
2019-02-20T02:24:09.289Z,86.97
2019-02-20T02:25:09.249Z,87.07
2019-02-20T02:26:11.117Z,87.28
2019-02-20T02:27:09.217Z,87.38
2019-02-20T02:28:09.219Z,87.59
2019-02-20T02:29:09.210Z,87.38
2019-02-20T02:30:09.175Z,86.97
2019-02-20T02:31:09.153Z,86.55
2019-02-20T02:32:09.142Z,86.66
2019-02-20T02:33:09.128Z,86.55
2019-02-20T02:34:09.153Z,86.45
2019-02-20T02:35:09.104Z,86.45
2019-02-20T02:36:09.104Z,86.55
2019-02-20T02:37:09.109Z,86.45
2019-02-20T02:38:09.169Z,86.45
2019-02-20T02:39:09.085Z,86.45
2019-02-20T02:40:09.067Z,86.45
2019-02-20T02:41:09.041Z,87.59
2019-02-20T02:42:09.056Z,86.25
2019-02-20T02:43:09.021Z,86.66
2019-02-20T02:44:09.141Z,86.55
2019-02-20T02:45:09.007Z,86.76
2019-02-20T02:46:08.989Z,86.45
2019-02-20T02:47:08.975Z,86.45
2019-02-20T02:48:08.972Z,86.04
2019-02-20T02:49:08.983Z,85.94
2019-02-20T02:50:08.950Z,85.94
2019-02-20T02:51:08.946Z,86.04
2019-02-20T02:52:08.933Z,86.35
2019-02-20T02:53:08.918Z,86.41
2019-02-20T02:54:08.913Z,86.25
2019-02-20T02:55:08.920Z,86.15
2019-02-20T02:56:08.885Z,86.35
2019-02-20T02:57:08.871Z,85.83
2019-02-20T02:58:08.874Z,86.25
2019-02-20T02:59:08.847Z,86.25
2019-02-20T03:00:08.871Z,85.73
2019-02-20T03:01:08.834Z,85.58
2019-02-20T03:02:08.821Z,85.73
2019-02-20T03:03:08.811Z,85.94
2019-02-20T03:04:08.795Z,85.73
2019-02-20T03:05:08.814Z,85.73
2019-02-20T03:06:08.796Z,85.69
2019-02-20T03:07:08.762Z,85.73
2019-02-20T03:08:08.753Z,85.73
2019-02-20T03:09:08.741Z,85.73
2019-02-20T03:10:08.764Z,85.73
2019-02-20T03:11:08.735Z,85.48
2019-02-20T03:12:08.736Z,84.96
2019-02-20T03:13:08.694Z,85.17
2019-02-20T03:14:08.693Z,85.17
2019-02-20T03:15:08.700Z,85.48
2019-02-20T03:16:08.669Z,85.58
2019-02-20T03:17:08.649Z,85.58
2019-02-20T03:18:08.651Z,85.58
2019-02-20T03:19:08.633Z,85.48
2019-02-20T03:20:08.653Z,84.75
2019-02-20T03:21:08.606Z,84.86
2019-02-20T03:22:08.618Z,84.65
2019-02-20T03:23:08.586Z,84.65
2019-02-20T03:24:08.583Z,84.96
2019-02-20T03:25:08.615Z,84.86
2019-02-20T03:26:08.566Z,85.06
2019-02-20T03:27:08.552Z,84.72
2019-02-20T03:28:08.543Z,84.65
2019-02-20T03:29:08.527Z,84.75
2019-02-20T03:30:08.518Z,84.44
2019-02-20T03:31:08.559Z,84.55
2019-02-20T03:32:08.537Z,84.72
2019-02-20T03:33:08.488Z,84.44
2019-02-20T03:34:09.048Z,84.44
2019-02-20T03:35:08.505Z,84.41
2019-02-20T03:36:08.457Z,84.72
2019-02-20T03:37:08.444Z,84.72
2019-02-20T03:38:08.433Z,84.72
2019-02-20T03:39:08.419Z,84.55
2019-02-20T03:40:08.449Z,84.92
2019-02-20T03:41:08.511Z,84.30
2019-02-20T03:42:08.387Z,84.23
2019-02-20T03:43:08.426Z,83.78
2019-02-20T03:44:08.370Z,84.20
2019-02-20T03:45:08.354Z,84.30
2019-02-20T03:46:08.381Z,84.20
2019-02-20T03:47:08.340Z,83.78
2019-02-20T03:48:08.326Z,84.20
2019-02-20T03:49:08.306Z,84.09
2019-02-20T03:50:08.309Z,84.20
2019-02-20T03:51:08.320Z,84.20
2019-02-20T03:52:08.283Z,83.78
2019-02-20T03:53:08.268Z,83.89
2019-02-20T03:54:08.267Z,84.09
2019-02-20T03:55:08.242Z,84.20
2019-02-20T03:56:09.261Z,84.20
2019-02-20T03:57:08.228Z,84.82
2019-02-20T03:58:08.227Z,84.51
2019-02-20T03:59:08.203Z,84.65
2019-02-20T04:00:08.208Z,84.82
2019-02-20T04:01:08.205Z,84.41
2019-02-20T04:02:08.172Z,84.61
2019-02-20T04:03:08.180Z,85.38
2019-02-20T04:04:08.150Z,85.24
2019-02-20T04:05:08.132Z,85.03
2019-02-20T04:06:08.165Z,84.51
2019-02-20T04:07:08.137Z,84.65
2019-02-20T04:08:08.111Z,84.72
2019-02-20T04:09:08.113Z,84.55
2019-02-20T04:10:09.129Z,84.92
2019-02-20T04:11:08.071Z,84.72
2019-02-20T04:12:08.094Z,84.41
2019-02-20T04:13:08.065Z,85.03
2019-02-20T04:14:08.043Z,84.51
2019-02-20T04:15:08.026Z,84.51
2019-02-20T04:16:08.025Z,84.51
2019-02-20T04:17:08.030Z,84.72
2019-02-20T04:19:09.111Z,84.72
2019-02-20T04:20:07.987Z,84.20
2019-02-20T04:21:07.959Z,84.61
2019-02-20T04:22:07.984Z,83.89
2019-02-20T04:23:07.943Z,84.41
2019-02-20T04:24:07.951Z,84.20
2019-02-20T04:25:07.920Z,84.61
2019-02-20T04:26:09.844Z,84.61
2019-02-20T04:27:07.922Z,84.30
2019-02-20T04:28:07.899Z,84.72
2019-02-20T04:29:07.885Z,84.82
2019-02-20T04:30:07.875Z,84.41
2019-02-20T04:31:07.862Z,84.41
2019-02-20T04:32:07.918Z,84.51
2019-02-20T04:33:07.933Z,84.61
2019-02-20T04:34:07.826Z,84.41
2019-02-20T04:35:07.820Z,84.51
2019-02-20T04:39:40.906Z,84.30
2019-02-20T04:40:40.843Z,84.61
2019-02-20T04:41:40.851Z,84.82
2019-02-20T04:42:40.842Z,84.72
2019-02-20T04:43:40.817Z,84.72
2019-02-20T04:44:40.797Z,84.41
2019-02-20T04:45:40.803Z,84.92
2019-02-20T04:46:40.775Z,84.41
2019-02-20T04:47:40.812Z,84.41
2019-02-20T04:48:40.757Z,84.61
2019-02-20T04:49:40.752Z,84.72
2019-02-20T04:50:40.736Z,85.03
2019-02-20T04:51:40.731Z,84.41
2019-02-20T04:52:40.754Z,84.61
2019-02-20T04:53:40.710Z,85.24
2019-02-20T04:54:40.692Z,84.82
2019-02-20T04:55:40.703Z,84.72
2019-02-20T04:56:40.672Z,84.72
2019-02-20T04:57:40.712Z,84.41
2019-02-20T04:58:40.646Z,84.92
2019-02-20T04:59:40.647Z,85.03
2019-02-20T05:00:40.634Z,84.72
2019-02-20T05:01:40.622Z,84.41
2019-02-20T05:02:40.646Z,85.03
2019-02-20T05:03:40.605Z,84.82
2019-02-20T05:04:40.584Z,84.82
2019-02-20T05:05:40.582Z,84.72
2019-02-20T05:06:40.571Z,85.13
2019-02-20T05:07:40.595Z,84.72
2019-02-20T05:08:40.623Z,84.72
2019-02-20T05:09:40.545Z,84.61
2019-02-20T05:10:40.517Z,84.92
2019-02-20T05:11:40.519Z,84.72
2019-02-20T05:12:40.498Z,84.51
2019-02-20T05:13:40.541Z,84.72
2019-02-20T05:14:40.474Z,85.65
2019-02-20T05:15:40.470Z,85.58
2019-02-20T05:16:40.459Z,85.34
2019-02-20T05:17:40.445Z,85.38
2019-02-20T05:18:40.463Z,85.44
2019-02-20T05:19:40.435Z,85.27
2019-02-20T05:20:40.416Z,85.27
2019-02-20T05:21:40.412Z,84.86
2019-02-20T05:22:40.398Z,84.86
2019-02-20T05:23:42.662Z,85.17
2019-02-20T05:24:40.370Z,85.17
2019-02-20T05:25:40.367Z,85.27
2019-02-20T05:26:40.344Z,85.69
2019-02-20T05:27:40.347Z,85.48
2019-02-20T05:28:40.354Z,85.38
2019-02-20T05:29:40.349Z,85.27
2019-02-20T05:30:40.316Z,85.17
2019-02-20T05:31:40.300Z,85.17
2019-02-20T05:32:40.301Z,85.48
2019-02-20T05:33:40.304Z,85.27
2019-02-20T05:34:40.282Z,85.17
2019-02-20T05:35:40.252Z,85.06
2019-02-20T05:36:40.237Z,84.75
2019-02-20T05:37:40.235Z,85.17
2019-02-20T05:38:40.255Z,84.80
2019-02-20T05:39:40.211Z,84.96
2019-02-20T05:40:40.211Z,85.79
2019-02-20T05:42:41.300Z,86.15
2019-02-20T05:43:40.170Z,86.15
2019-02-20T05:44:40.178Z,85.38
2019-02-20T05:45:40.152Z,85.63
2019-02-20T05:46:40.128Z,85.83
2019-02-20T05:47:40.131Z,85.52
2019-02-20T05:48:40.112Z,85.73
2019-02-20T05:49:40.137Z,85.63
2019-02-20T05:50:40.088Z,85.94
2019-02-20T05:51:40.093Z,85.73
2019-02-20T05:52:40.064Z,85.52
2019-02-20T05:53:40.064Z,85.73
2019-02-20T05:54:40.075Z,85.63
2019-02-20T05:55:40.043Z,85.94
2019-02-20T05:56:40.029Z,86.25
2019-02-20T05:57:40.025Z,86.25
2019-02-20T05:58:40.000Z,85.87
2019-02-20T05:59:40.039Z,85.94
2019-02-20T06:00:39.983Z,86.60
2019-02-20T06:01:40.008Z,86.70
2019-02-20T06:02:39.957Z,86.49
2019-02-20T06:03:39.956Z,86.60
2019-02-20T06:04:39.973Z,87.12
2019-02-20T06:05:39.934Z,87.22
2019-02-20T06:06:39.921Z,87.05
2019-02-20T06:07:39.910Z,87.68
2019-02-20T06:08:39.897Z,87.26
2019-02-20T06:09:39.944Z,87.16
2019-02-20T06:10:39.887Z,87.57
2019-02-20T06:11:39.872Z,87.68
2019-02-20T06:12:39.864Z,87.78
2019-02-20T06:13:39.857Z,87.57
2019-02-20T06:14:39.857Z,87.68
2019-02-20T06:15:39.854Z,87.68
2019-02-20T06:16:39.824Z,87.82
2019-02-20T06:17:39.808Z,87.51
2019-02-20T06:18:39.788Z,87.82
2019-02-20T06:19:39.788Z,87.37
2019-02-20T06:20:39.794Z,87.71
2019-02-20T06:21:39.761Z,87.71
2019-02-20T06:22:39.765Z,87.71
2019-02-20T06:23:39.750Z,87.82
2019-02-20T06:24:44.104Z,87.82
2019-02-20T06:25:39.765Z,87.82
2019-02-20T06:26:39.706Z,87.76
2019-02-20T06:27:39.719Z,88.13
2019-02-20T06:28:39.683Z,88.13
2019-02-20T06:29:39.692Z,87.71
2019-02-20T06:30:39.684Z,88.07
2019-02-20T06:31:39.668Z,88.38
2019-02-20T06:32:39.642Z,88.17
2019-02-20T06:33:39.633Z,88.28
2019-02-20T06:34:39.624Z,88.28
2019-02-20T06:35:39.648Z,88.38
2019-02-20T06:36:39.595Z,88.17
2019-02-20T06:37:39.604Z,88.07
2019-02-20T06:38:39.577Z,88.38
2019-02-20T06:39:39.581Z,89.11
2019-02-20T06:40:39.555Z,88.59
2019-02-20T06:41:39.715Z,88.48
2019-02-20T06:42:39.534Z,88.28
2019-02-20T06:43:39.555Z,88.07
2019-02-20T06:44:39.514Z,88.28
2019-02-20T06:45:39.510Z,88.28
2019-02-20T06:46:39.518Z,88.48
2019-02-20T06:47:39.543Z,88.17
2019-02-20T06:48:39.489Z,88.07
2019-02-20T06:49:39.482Z,88.38
2019-02-20T06:50:39.453Z,88.38
2019-02-20T06:51:39.482Z,88.28
2019-02-20T06:52:39.432Z,88.28
2019-02-20T06:53:39.425Z,87.96
2019-02-20T06:54:39.407Z,88.17
2019-02-20T06:55:39.400Z,88.17
2019-02-20T06:56:39.413Z,88.48
2019-02-20T06:57:39.383Z,88.38
2019-02-20T06:58:39.404Z,88.23
2019-02-20T06:59:39.358Z,88.23
2019-02-20T07:00:39.341Z,87.82
2019-02-20T07:01:39.371Z,87.71
2019-02-20T07:02:39.321Z,87.61
2019-02-20T07:03:39.348Z,87.51
2019-02-20T07:04:39.299Z,87.40
2019-02-20T07:05:39.303Z,87.51
2019-02-20T07:06:39.310Z,87.26
2019-02-20T07:07:39.273Z,87.71
2019-02-20T07:08:39.264Z,87.40
2019-02-20T07:09:39.257Z,87.26
2019-02-20T07:10:39.277Z,87.05
2019-02-20T07:11:39.274Z,87.05
2019-02-20T07:12:39.215Z,87.16
2019-02-20T07:13:39.209Z,87.16
2019-02-20T07:14:39.195Z,87.01
2019-02-20T07:15:39.188Z,86.80
2019-02-20T07:16:39.177Z,86.43
2019-02-20T07:17:39.197Z,85.97
2019-02-20T07:18:39.155Z,86.18
2019-02-20T07:20:40.255Z,85.87
2019-02-20T07:21:39.135Z,85.52
2019-02-20T07:22:39.160Z,85.11
2019-02-20T07:23:39.105Z,85.63
2019-02-20T07:24:39.089Z,85.73
2019-02-20T07:25:39.086Z,84.80
2019-02-20T07:26:39.073Z,84.59
2019-02-20T07:27:39.087Z,84.48
2019-02-20T07:28:39.059Z,84.69
2019-02-20T07:29:39.052Z,83.97
2019-02-20T07:30:39.035Z,83.97
2019-02-20T07:31:39.017Z,83.72
2019-02-20T07:32:39.028Z,83.83
2019-02-20T07:33:39.010Z,83.83
2019-02-20T07:34:38.984Z,83.72
2019-02-20T07:35:39.007Z,83.83
2019-02-20T07:36:38.962Z,84.03
2019-02-20T07:37:38.991Z,83.20
2019-02-20T07:38:38.941Z,83.31
2019-02-20T07:39:38.932Z,83.41
2019-02-20T07:40:38.924Z,82.89
2019-02-20T07:41:38.909Z,82.68
2019-02-20T07:42:38.891Z,83.51
2019-02-20T07:43:38.919Z,83.00
2019-02-20T07:44:38.868Z,83.51
2019-02-20T07:45:38.873Z,83.06
2019-02-20T07:46:38.855Z,82.95
2019-02-20T07:47:38.856Z,82.75
2019-02-20T07:48:38.859Z,82.79
2019-02-20T07:49:38.847Z,83.06
2019-02-20T07:50:38.810Z,82.75
2019-02-20T07:51:38.801Z,82.65
2019-02-20T07:52:38.787Z,82.95
2019-02-20T07:53:38.812Z,82.86
2019-02-20T07:54:38.766Z,82.75
2019-02-20T07:55:38.773Z,82.44
2019-02-20T07:56:38.748Z,82.44
2019-02-20T07:57:38.736Z,82.54
2019-02-20T07:58:38.877Z,82.75
2019-02-20T07:59:38.714Z,82.54
2019-02-20T08:00:38.706Z,81.92
2019-02-20T08:01:38.705Z,82.23
2019-02-20T08:02:38.677Z,81.82
2019-02-20T08:03:38.704Z,82.13
2019-02-20T08:04:38.659Z,81.61
2019-02-20T08:05:38.648Z,81.78
2019-02-20T08:06:38.698Z,81.57
2019-02-20T08:07:38.632Z,81.57
2019-02-20T08:08:38.670Z,81.16
2019-02-20T08:09:38.612Z,81.12
2019-02-20T08:10:38.616Z,81.05
2019-02-20T08:11:38.592Z,80.71
2019-02-20T08:12:38.567Z,80.50
2019-02-20T08:13:39.567Z,80.91
2019-02-20T08:14:38.574Z,81.23
2019-02-20T08:15:38.541Z,80.57
2019-02-20T08:16:38.528Z,80.57
2019-02-20T08:17:38.524Z,80.15
2019-02-20T08:18:38.536Z,79.53
2019-02-20T08:19:38.547Z,78.60
2019-02-20T08:20:38.487Z,79.19
2019-02-20T08:21:38.489Z,78.88
2019-02-20T08:22:38.465Z,79.19
2019-02-20T08:23:38.456Z,79.29
2019-02-20T08:24:38.465Z,78.01
2019-02-20T08:25:38.447Z,78.22
2019-02-20T08:26:38.456Z,78.22
2019-02-20T08:27:38.425Z,77.39
2019-02-20T08:28:38.393Z,77.25
2019-02-20T08:29:38.414Z,77.36
2019-02-20T08:30:38.380Z,77.25
2019-02-20T08:31:38.369Z,77.22
2019-02-20T08:32:38.350Z,76.60
2019-02-20T08:33:38.343Z,76.60
2019-02-20T08:34:38.333Z,75.53
2019-02-20T08:35:38.352Z,75.53
2019-02-20T08:36:38.313Z,76.04
2019-02-20T08:37:38.298Z,75.53
2019-02-20T08:38:38.288Z,75.84
2019-02-20T08:39:38.279Z,75.22
2019-02-20T08:40:38.286Z,74.57
2019-02-20T08:41:38.276Z,74.98
2019-02-20T08:42:38.242Z,74.67
2019-02-20T08:43:38.244Z,74.88
2019-02-20T08:44:38.234Z,74.88
2019-02-20T08:45:38.248Z,74.98
2019-02-20T08:46:38.201Z,74.36
2019-02-20T08:47:38.198Z,74.15
2019-02-20T08:48:38.174Z,74.67
2019-02-20T08:49:38.174Z,74.46
2019-02-20T08:50:38.177Z,74.05
2019-02-20T08:51:38.154Z,73.95
2019-02-20T08:52:38.132Z,74.43
2019-02-20T08:53:38.127Z,74.02
2019-02-20T08:54:38.110Z,73.95
2019-02-20T08:55:38.132Z,73.40
2019-02-20T08:56:38.090Z,74.05
2019-02-20T08:57:38.089Z,73.85
2019-02-20T08:58:38.068Z,74.02
2019-02-20T08:59:38.065Z,74.05
2019-02-20T09:00:38.071Z,73.91
2019-02-20T09:01:38.040Z,73.60
2019-02-20T09:02:38.022Z,73.30
2019-02-20T09:03:38.015Z,73.40
2019-02-20T09:04:38.010Z,73.71
2019-02-20T09:05:38.018Z,73.40
2019-02-20T09:06:37.977Z,72.78
2019-02-20T09:07:37.979Z,73.40
2019-02-20T09:08:37.960Z,72.99
2019-02-20T09:09:37.954Z,72.99
2019-02-20T09:10:37.960Z,73.40
2019-02-20T09:11:37.932Z,73.26
2019-02-20T09:12:37.916Z,73.09
2019-02-20T09:13:37.910Z,73.19
2019-02-20T09:14:37.893Z,72.78
2019-02-20T09:15:37.915Z,72.78
2019-02-20T09:16:37.897Z,72.54
2019-02-20T09:18:38.975Z,72.44
2019-02-20T09:19:37.842Z,72.23
2019-02-20T09:20:37.840Z,72.03
2019-02-20T09:21:37.848Z,72.03
2019-02-20T09:22:39.492Z,72.13
2019-02-20T09:23:37.803Z,72.41
2019-02-20T09:24:37.783Z,72.23
2019-02-20T09:25:41.626Z,71.78
2019-02-20T09:26:37.807Z,71.37
2019-02-20T09:27:37.760Z,71.17
2019-02-20T09:28:37.740Z,71.27
2019-02-20T09:29:37.757Z,71.86
2019-02-20T09:30:37.714Z,71.34
2019-02-20T09:31:37.743Z,70.79
2019-02-20T09:32:37.700Z,70.18
2019-02-20T09:33:37.688Z,69.87
2019-02-20T09:34:37.682Z,69.66
2019-02-20T09:35:37.670Z,69.76
2019-02-20T09:37:38.803Z,69.25
2019-02-20T09:38:37.761Z,69.46
2019-02-20T09:39:37.752Z,69.32
2019-02-20T09:40:37.750Z,69.32
2019-02-20T09:41:37.727Z,68.80
2019-02-20T09:42:37.734Z,69.12
2019-02-20T09:43:37.589Z,69.42
2019-02-20T09:44:37.580Z,69.22
2019-02-20T09:45:41.853Z,69.01
2019-02-20T09:46:38.548Z,69.22
2019-02-20T09:47:37.584Z,69.32
2019-02-20T09:48:37.523Z,68.50
2019-02-20T09:49:37.511Z,69.22
2019-02-20T09:51:38.624Z,69.12
2019-02-20T09:52:37.504Z,69.53
2019-02-20T09:53:37.464Z,69.49
2019-02-20T09:54:37.472Z,69.49
2019-02-20T09:55:37.447Z,69.09
2019-02-20T09:56:37.446Z,68.67
2019-02-20T09:57:37.455Z,67.85
2019-02-20T09:58:37.441Z,68.57
2019-02-20T09:59:37.408Z,68.67
2019-02-20T10:00:37.395Z,67.92
2019-02-20T10:01:37.385Z,67.92
2019-02-20T10:02:37.406Z,68.02
2019-02-20T10:03:37.387Z,67.30
2019-02-20T10:04:37.360Z,67.51
2019-02-20T10:05:37.332Z,67.20
2019-02-20T10:06:37.340Z,67.82
2019-02-20T10:07:37.350Z,68.30
2019-02-20T10:08:37.321Z,67.48
2019-02-20T10:09:37.299Z,67.48
2019-02-20T10:10:37.290Z,66.66
2019-02-20T10:11:37.277Z,66.35
2019-02-20T10:12:37.308Z,66.83
2019-02-20T10:13:37.280Z,66.42
2019-02-20T10:14:37.262Z,66.52
2019-02-20T10:15:37.232Z,67.24
2019-02-20T10:16:37.223Z,66.11
2019-02-20T10:17:37.206Z,65.26
2019-02-20T10:18:37.229Z,66.28
2019-02-20T10:19:37.187Z,65.98
2019-02-20T10:20:37.195Z,65.26
2019-02-20T10:21:37.164Z,64.61
2019-02-20T10:22:37.156Z,65.12
2019-02-20T10:23:37.168Z,64.51
2019-02-20T10:24:37.140Z,63.90
2019-02-20T10:25:37.123Z,63.69
2019-02-20T10:26:37.116Z,64.51
2019-02-20T10:27:37.101Z,64.51
2019-02-20T10:28:37.271Z,65.12
2019-02-20T10:29:37.090Z,64.92
2019-02-20T10:30:37.070Z,64.72
2019-02-20T10:31:37.059Z,64.31
2019-02-20T10:32:37.076Z,64.51
2019-02-20T10:33:37.037Z,65.03
2019-02-20T10:34:37.082Z,65.33
2019-02-20T10:35:37.017Z,65.23
2019-02-20T10:36:37.027Z,63.79
2019-02-20T10:37:36.999Z,63.15
2019-02-20T10:38:37.025Z,62.95
2019-02-20T10:39:36.967Z,62.95
2019-02-20T10:40:36.967Z,62.56
2019-02-20T10:41:36.949Z,62.74
2019-02-20T10:42:36.948Z,63.43
2019-02-20T10:43:36.951Z,63.12
2019-02-20T10:44:36.962Z,62.19
2019-02-20T10:45:36.901Z,62.61
2019-02-20T10:46:36.900Z,62.37
2019-02-20T10:47:36.883Z,62.37
2019-02-20T10:48:36.884Z,61.32
2019-02-20T10:49:36.897Z,62.04
2019-02-20T10:50:36.889Z,62.55
2019-02-20T10:51:36.832Z,62.42
2019-02-20T10:52:36.836Z,61.70
2019-02-20T10:53:36.815Z,60.68
2019-02-20T10:54:36.848Z,60.58
2019-02-20T10:55:36.798Z,61.60
2019-02-20T10:56:36.789Z,61.01
2019-02-20T10:57:36.776Z,61.32
2019-02-20T10:58:36.771Z,61.73
2019-02-20T10:59:36.780Z,61.11
2019-02-20T11:01:37.856Z,61.22
2019-02-20T11:02:36.722Z,61.52
2019-02-20T11:03:36.707Z,60.33
2019-02-20T11:04:36.728Z,61.01
2019-02-20T11:05:36.698Z,61.22
2019-02-20T11:06:36.675Z,61.73
2019-02-20T11:07:36.661Z,61.45
2019-02-20T11:08:36.661Z,61.25
2019-02-20T11:09:36.664Z,62.58
2019-02-20T11:10:36.670Z,62.10
2019-02-20T11:11:36.613Z,62.27
2019-02-20T11:12:36.616Z,61.45
2019-02-20T11:13:36.591Z,62.58
2019-02-20T11:14:37.810Z,62.48
2019-02-20T11:15:36.574Z,62.78
2019-02-20T11:16:36.574Z,61.55
2019-02-20T11:17:37.177Z,61.66
2019-02-20T11:18:36.546Z,62.27
2019-02-20T11:19:36.558Z,63.37
2019-02-20T11:20:36.545Z,63.06
2019-02-20T11:21:36.503Z,62.24
2019-02-20T11:22:36.501Z,62.85
2019-02-20T11:23:36.501Z,63.26
2019-02-20T11:24:36.480Z,62.35
2019-02-20T11:25:36.507Z,61.73
2019-02-20T11:26:43.493Z,62.55
2019-02-20T11:27:39.379Z,62.24
2019-02-20T11:28:36.434Z,61.73
2019-02-20T11:29:36.417Z,62.65
2019-02-20T11:30:36.437Z,63.37
2019-02-20T11:31:36.404Z,62.55
2019-02-20T11:32:36.395Z,62.24
2019-02-20T11:33:36.380Z,61.40
2019-02-20T11:35:37.569Z,62.42
2019-02-20T11:36:36.351Z,62.42
2019-02-20T11:37:36.332Z,62.21
2019-02-20T11:38:36.374Z,63.03
2019-02-20T11:39:37.912Z,63.13
2019-02-20T11:40:36.346Z,62.80
2019-02-20T11:41:36.287Z,61.44
2019-02-20T11:42:36.312Z,62.29
2019-02-20T11:43:36.268Z,61.75
2019-02-20T11:45:37.380Z,61.51
2019-02-20T11:47:37.415Z,60.62
2019-02-20T11:49:37.329Z,60.49
2019-02-20T11:50:36.333Z,60.90
2019-02-20T11:51:36.338Z,60.69
2019-02-20T11:52:38.295Z,61.31
2019-02-20T11:53:37.368Z,61.21
2019-02-20T11:54:36.280Z,61.00
2019-02-20T11:55:36.144Z,61.75
2019-02-20T11:56:36.171Z,60.83
2019-02-20T11:57:36.121Z,61.03
2019-02-20T11:58:36.111Z,61.44
2019-02-20T11:59:36.090Z,61.31
2019-02-20T12:00:36.127Z,61.00
2019-02-20T12:02:37.627Z,61.51
2019-02-20T12:03:36.066Z,61.31
2019-02-20T12:04:36.071Z,61.51
2019-02-20T12:06:37.145Z,61.34
2019-02-20T12:07:37.072Z,62.36
2019-02-20T12:08:36.189Z,62.05
2019-02-20T12:10:37.105Z,62.16
2019-02-20T12:11:36.302Z,63.07
2019-02-20T12:12:36.314Z,62.46
2019-02-20T12:13:36.103Z,61.44
2019-02-20T12:14:36.138Z,62.36
2019-02-20T12:15:36.025Z,62.16
2019-02-20T12:16:35.903Z,62.74
2019-02-20T12:18:37.020Z,62.77
2019-02-20T12:19:36.009Z,61.41
2019-02-20T12:20:36.005Z,62.26
2019-02-20T12:21:35.996Z,63.07
2019-02-20T12:22:35.999Z,62.13
2019-02-20T12:23:36.865Z,62.43
2019-02-20T12:24:35.819Z,61.92
2019-02-20T12:25:35.814Z,61.82
2019-02-20T12:26:35.794Z,60.49
2019-02-20T12:27:35.868Z,59.98
2019-02-20T12:28:35.777Z,61.10
2019-02-20T12:29:35.868Z,60.46
2019-02-20T12:30:35.754Z,60.46
2019-02-20T12:31:35.748Z,60.57
2019-02-20T12:32:35.732Z,60.94
2019-02-20T12:33:35.779Z,59.80
2019-02-20T12:34:35.713Z,59.92
2019-02-20T12:35:35.722Z,60.30
2019-02-20T12:36:35.688Z,59.18
2019-02-20T12:37:35.709Z,59.89
2019-02-20T12:38:37.150Z,58.60
2019-02-20T12:39:35.670Z,58.80
2019-02-20T12:40:35.651Z,58.73
2019-02-20T12:41:35.643Z,58.62
2019-02-20T12:42:35.627Z,58.62
2019-02-20T12:43:35.645Z,58.93
2019-02-20T12:44:35.600Z,58.91
2019-02-20T12:45:35.593Z,58.91
2019-02-20T12:46:35.582Z,58.78
2019-02-20T12:47:35.575Z,58.98
2019-02-20T12:48:35.591Z,57.96
2019-02-20T12:49:35.552Z,58.75
2019-02-20T12:50:35.549Z,58.03
2019-02-20T12:52:36.645Z,58.11
2019-02-20T12:53:35.535Z,56.91
2019-02-20T12:54:35.499Z,58.14
2019-02-20T12:55:35.496Z,56.84
2019-02-20T12:56:43.444Z,57.75
2019-02-20T12:57:36.459Z,58.37
2019-02-20T12:58:35.450Z,58.98
2019-02-20T12:59:36.762Z,59.08
2019-02-20T13:00:35.434Z,58.26
2019-02-20T13:01:35.415Z,56.94
2019-02-20T13:02:36.085Z,58.16
2019-02-20T13:03:35.395Z,58.06
2019-02-20T13:04:35.410Z,57.96
2019-02-20T13:05:35.373Z,58.09
2019-02-20T13:06:35.367Z,58.29
2019-02-20T13:07:35.354Z,57.88
2019-02-20T13:08:35.383Z,58.19
2019-02-20T13:09:35.331Z,58.42
2019-02-20T13:10:35.342Z,58.91
2019-02-20T13:11:35.323Z,58.73
2019-02-20T13:12:35.306Z,58.22